Time;durP1;ratioP1;P1;durP2;ratioP2;P2;SDS_P1;SDS_P2;PMS_P1;PMS_P2;Temp;Humidity;BMP_temperature;BMP_pressure;BME280_temperature;BME280_humidity;BME280_pressure;Samples;Min_cycle;Max_cycle;Signal;HPM_P1;HPM_P2
2022/06/01 00:01:44;;;;;;;5.03;3.60;;;11.00;99.90;;;;;;4805918;29;20270;-87
2022/06/01 00:04:10;;;;;;;4.40;3.20;;;11.00;99.90;;;;;;4806000;29;20191;-87
2022/06/01 00:06:36;;;;;;;4.07;3.38;;;10.90;99.90;;;;;;4807276;29;20273;-87
2022/06/01 00:09:02;;;;;;;3.85;3.53;;;11.00;99.90;;;;;;4821147;29;20186;-87
2022/06/01 00:11:28;;;;;;;7.03;3.95;;;10.90;99.90;;;;;;4805883;29;20191;-87
2022/06/01 00:13:54;;;;;;;4.22;3.42;;;10.90;99.90;;;;;;4805613;29;20195;-86
2022/06/01 00:16:21;;;;;;;3.80;3.38;;;10.80;99.90;;;;;;4805848;29;20226;-86
2022/06/01 00:18:47;;;;;;;4.55;3.13;;;10.80;99.90;;;;;;4805886;29;20690;-86
2022/06/01 00:21:12;;;;;;;4.30;3.45;;;10.70;99.90;;;;;;4808739;29;20322;-87
2022/06/01 00:23:38;;;;;;;4.38;3.17;;;10.60;99.90;;;;;;4809182;29;20210;-87
2022/06/01 00:26:04;;;;;;;5.15;3.13;;;10.60;99.90;;;;;;4809185;29;20183;-86
2022/06/01 00:28:30;;;;;;;3.83;2.90;;;10.60;99.90;;;;;;4809273;29;20179;-86
2022/06/01 00:30:55;;;;;;;6.50;3.05;;;10.70;99.90;;;;;;4809915;29;20243;-86
2022/06/01 00:33:21;;;;;;;3.63;3.15;;;10.70;99.90;;;;;;4809392;29;20183;-86
2022/06/01 00:35:47;;;;;;;5.07;3.17;;;10.70;99.90;;;;;;4809086;29;20226;-86
2022/06/01 00:38:13;;;;;;;4.50;3.42;;;10.70;99.90;;;;;;4810228;29;20175;-86
2022/06/01 00:40:39;;;;;;;3.60;3.30;;;10.60;99.90;;;;;;4809011;29;20220;-87
2022/06/01 00:43:21;;;;;;;6.07;3.00;;;10.50;99.90;;;;;;4809168;29;20267;-87
2022/06/01 00:45:47;;;;;;;4.63;2.90;;;10.50;99.90;;;;;;4808707;29;20183;-86
2022/06/01 00:48:14;;;;;;;3.35;2.97;;;10.50;99.90;;;;;;4808767;29;20183;-86
2022/06/01 00:50:41;;;;;;;3.97;3.35;;;10.50;99.90;;;;;;4809957;29;20217;-86
2022/06/01 00:53:09;;;;;;;4.78;3.30;;;10.50;99.90;;;;;;4808785;29;20218;-86
2022/06/01 00:55:41;;;;;;;3.93;3.53;;;10.40;99.90;;;;;;4809817;29;20213;-86
2022/06/01 00:58:12;;;;;;;3.83;3.30;;;10.40;99.90;;;;;;4808655;29;20521;-87
2022/06/01 01:00:41;;;;;;;4.38;3.72;;;10.40;99.90;;;;;;4809776;29;20678;-87
2022/06/01 01:03:10;;;;;;;4.57;4.07;;;10.40;99.90;;;;;;4808348;29;20186;-87
2022/06/01 01:05:39;;;;;;;7.63;4.47;;;10.30;99.90;;;;;;4826573;29;20186;-86
2022/06/01 01:08:05;;;;;;;5.20;4.28;;;10.40;99.90;;;;;;4827650;29;20265;-86
2022/06/01 01:10:32;;;;;;;4.40;4.00;;;10.30;99.90;;;;;;4827810;29;20216;-86
2022/06/01 01:13:01;;;;;;;5.03;4.00;;;10.30;99.90;;;;;;4826581;29;20190;-86
2022/06/01 01:15:30;;;;;;;7.18;4.18;;;10.30;99.90;;;;;;4826262;29;20225;-86
2022/06/01 01:17:56;;;;;;;6.80;4.53;;;10.20;99.90;;;;;;4826420;29;20285;-86
2022/06/01 01:20:24;;;;;;;6.43;4.40;;;10.20;99.90;;;;;;5199984;23;20716;-87
2022/06/01 01:23:00;;;;;;;3.93;3.50;;;10.20;99.90;;;;;;4819474;29;20190;-87
2022/06/01 01:25:28;;;;;;;4.47;4.07;;;10.10;99.90;;;;;;4827620;29;20166;-86
2022/06/01 01:27:57;;;;;;;6.13;4.72;;;10.10;99.90;;;;;;4826621;29;20190;-86
2022/06/01 01:30:56;;;;;;;5.40;4.10;;;10.10;99.90;;;;;;4826195;29;20186;-86
2022/06/01 01:33:28;;;;;;;5.80;4.23;;;10.10;99.90;;;;;;4826487;29;20507;-86
2022/06/01 01:36:01;;;;;;;5.53;4.60;;;10.00;99.90;;;;;;4826444;29;20272;-86
2022/06/01 01:38:49;;;;;;;9.03;4.67;;;10.00;99.90;;;;;;4826400;29;20205;-86
2022/06/01 01:41:23;;;;;;;5.37;4.60;;;10.00;99.90;;;;;;4826226;29;20198;-86
2022/06/01 01:44:15;;;;;;;8.20;4.97;;;9.90;99.90;;;;;;4826237;29;20253;-86
2022/06/01 01:46:47;;;;;;;6.40;4.87;;;9.90;99.90;;;;;;4826201;29;20190;-86
2022/06/01 01:49:23;;;;;;;4.33;3.83;;;9.90;99.90;;;;;;4826040;29;20239;-86
2022/06/01 01:51:53;;;;;;;5.47;4.57;;;9.90;99.90;;;;;;4819346;29;20259;-86
2022/06/01 01:54:57;;;;;;;7.60;4.70;;;9.80;99.90;;;;;;4808800;29;20258;-86
2022/06/01 01:57:48;;;;;;;6.67;4.43;;;9.70;99.90;;;;;;4800448;29;20194;-86
2022/06/01 02:00:21;;;;;;;5.10;4.50;;;9.50;99.90;;;;;;4807334;29;20186;-86
2022/06/01 02:03:10;;;;;;;6.53;5.03;;;9.50;99.90;;;;;;4807851;29;20293;-86
2022/06/01 02:06:04;;;;;;;6.63;5.00;;;9.50;99.90;;;;;;4807498;29;20258;-86
2022/06/01 02:08:29;;;;;;;7.17;5.10;;;9.50;99.90;;;;;;4807456;29;20766;-86
2022/06/01 02:14:01;;;;;;;6.37;4.60;;;9.70;99.90;;;;;;4816705;29;20206;-86
2022/06/01 02:16:34;;;;;;;5.83;4.77;;;9.70;99.90;;;;;;4807382;29;20214;-86
2022/06/01 02:19:04;;;;;;;5.53;4.63;;;9.70;99.90;;;;;;4808604;29;20656;-86
2022/06/01 02:21:29;;;;;;;6.93;4.83;;;9.60;99.90;;;;;;4807162;29;20292;-86
2022/06/01 02:23:59;;;;;;;5.63;4.97;;;9.60;99.90;;;;;;4808467;29;20622;-87
2022/06/01 02:26:26;;;;;;;5.83;5.03;;;9.70;99.90;;;;;;4807257;29;20187;-86
2022/06/01 02:28:58;;;;;;;6.27;4.80;;;9.60;99.90;;;;;;4807257;29;20235;-87
2022/06/01 02:31:25;;;;;;;6.10;4.40;;;9.50;99.90;;;;;;4806803;29;20191;-87
2022/06/01 02:33:52;;;;;;;6.80;5.13;;;9.60;99.90;;;;;;4808356;29;20262;-86
2022/06/01 02:36:20;;;;;;;5.40;4.47;;;9.60;99.90;;;;;;4807007;29;20257;-86
2022/06/01 02:38:49;;;;;;;6.50;4.83;;;9.60;99.90;;;;;;4807150;29;20186;-87
2022/06/01 02:44:00;;;;;;;6.20;5.07;;;9.60;99.90;;;;;;4807829;29;20244;-85
2022/06/01 02:46:25;;;;;;;6.00;4.37;;;9.60;99.90;;;;;;4806634;29;20191;-86
2022/06/01 02:48:51;;;;;;;4.60;3.93;;;9.70;99.90;;;;;;4806835;29;20183;-85
2022/06/01 02:51:19;;;;;;;4.67;4.17;;;9.70;99.90;;;;;;4808039;29;20246;-86
2022/06/01 02:53:48;;;;;;;6.70;4.53;;;9.60;99.90;;;;;;4806598;29;20182;-85
2022/06/01 02:56:15;;;;;;;7.43;4.53;;;9.60;99.90;;;;;;4806745;29;20222;-86
2022/06/01 02:58:41;;;;;;;5.10;4.27;;;9.60;99.90;;;;;;4807827;29;20265;-86
2022/06/01 03:01:08;;;;;;;8.60;4.43;;;9.70;99.90;;;;;;4806429;29;20278;-86
2022/06/01 03:03:35;;;;;;;6.43;4.23;;;9.70;99.90;;;;;;4806413;29;20178;-85
2022/06/01 03:06:01;;;;;;;7.77;4.63;;;9.70;99.90;;;;;;4806788;29;20206;-86
2022/06/01 03:08:26;;;;;;;5.20;4.70;;;9.70;99.90;;;;;;4806413;29;20179;-85
2022/06/01 03:10:53;;;;;;;5.07;4.40;;;9.80;99.90;;;;;;4806360;29;20591;-86
2022/06/01 03:13:21;;;;;;;6.77;4.43;;;9.80;99.90;;;;;;4806574;29;20197;-85
2022/06/01 03:15:47;;;;;;;6.93;4.67;;;9.80;99.90;;;;;;4806064;29;20773;-85
2022/06/01 03:18:12;;;;;;;6.00;4.43;;;9.90;99.90;;;;;;4805863;29;20247;-86
2022/06/01 03:20:39;;;;;;;4.47;4.00;;;9.90;99.90;;;;;;4806379;29;20238;-86
2022/06/01 03:23:06;;;;;;;5.53;3.93;;;9.90;99.90;;;;;;4807430;29;20557;-86
2022/06/01 03:25:32;;;;;;;5.83;4.17;;;10.00;99.90;;;;;;4805639;29;20183;-86
2022/06/01 03:27:59;;;;;;;5.67;4.20;;;10.10;99.90;;;;;;4806235;29;20185;-85
2022/06/01 03:30:26;;;;;;;4.60;3.60;;;10.10;99.90;;;;;;4806018;29;20194;-85
2022/06/01 03:32:53;;;;;;;4.97;3.63;;;10.10;99.90;;;;;;4806053;29;20179;-85
2022/06/01 03:35:22;;;;;;;4.47;3.80;;;10.20;99.90;;;;;;4805936;29;20206;-85
2022/06/01 03:37:48;;;;;;;4.65;3.65;;;10.20;99.90;;;;;;4806117;29;20264;-85
2022/06/01 03:40:16;;;;;;;6.17;3.60;;;10.20;99.90;;;;;;4806031;29;20187;-84
2022/06/01 03:42:41;;;;;;;5.40;3.70;;;10.20;99.90;;;;;;4806063;29;20190;-85
2022/06/01 03:47:53;;;;;;;4.40;3.77;;;10.30;99.90;;;;;;4807750;29;20560;-85
2022/06/01 03:50:19;;;;;;;6.95;3.78;;;10.30;99.90;;;;;;4806028;29;20191;-85
2022/06/01 03:52:45;;;;;;;8.20;3.70;;;10.30;99.90;;;;;;4807251;29;20547;-86
2022/06/01 03:55:14;;;;;;;4.60;3.60;;;10.40;99.90;;;;;;4807778;29;20283;-87
2022/06/01 03:57:41;;;;;;;4.30;2.95;;;10.40;99.90;;;;;;4809940;29;20220;-87
2022/06/01 04:00:09;;;;;;;5.57;3.47;;;10.40;99.90;;;;;;4809595;29;20186;-85
2022/06/01 04:02:37;;;;;;;4.90;3.60;;;10.40;99.90;;;;;;4809848;29;20190;-87
2022/06/01 04:05:03;;;;;;;6.05;4.57;;;10.40;99.90;;;;;;4809120;29;20181;-87
2022/06/01 04:07:29;;;;;;;4.13;3.73;;;10.30;99.90;;;;;;4809259;29;20431;-89
2022/06/01 04:09:55;;;;;;;6.60;3.40;;;10.30;99.90;;;;;;4810835;29;20179;-87
2022/06/01 04:12:21;;;;;;;5.23;3.57;;;10.30;99.90;;;;;;4809758;29;20194;-87
2022/06/01 04:14:46;;;;;;;4.33;3.90;;;10.30;99.90;;;;;;4809580;29;20294;-87
2022/06/01 04:17:12;;;;;;;5.43;4.10;;;10.30;99.90;;;;;;4809538;29;20277;-86
2022/06/01 04:19:38;;;;;;;5.73;3.70;;;10.40;99.90;;;;;;4809118;29;20182;-85
2022/06/01 04:22:03;;;;;;;5.05;3.85;;;10.40;99.90;;;;;;4809678;29;20195;-88
2022/06/01 04:24:32;;;;;;;5.77;3.80;;;10.40;99.90;;;;;;4809486;29;20193;-88
2022/06/01 04:26:58;;;;;;;4.77;4.00;;;10.40;99.90;;;;;;4809547;29;20535;-86
2022/06/01 04:29:24;;;;;;;5.50;4.20;;;10.40;99.90;;;;;;4810524;29;20638;-86
2022/06/01 04:31:57;;;;;;;5.67;3.70;;;10.40;99.90;;;;;;4808867;29;20317;-86
2022/06/01 04:34:22;;;;;;;8.90;4.32;;;10.50;99.90;;;;;;4810315;29;20659;-86
2022/06/01 04:36:49;;;;;;;4.70;3.50;;;10.50;99.90;;;;;;4809502;29;20191;-87
2022/06/01 04:39:14;;;;;;;4.90;3.67;;;10.60;99.90;;;;;;4809605;29;20206;-88
2022/06/01 04:41:40;;;;;;;6.67;4.40;;;10.60;99.90;;;;;;4809300;29;20613;-88
2022/06/01 04:44:05;;;;;;;5.83;3.90;;;10.60;99.90;;;;;;4809308;29;20179;-88
2022/06/01 04:46:31;;;;;;;4.60;4.03;;;10.60;99.90;;;;;;4809953;29;20182;-87
2022/06/01 04:48:57;;;;;;;9.50;4.60;;;10.60;99.90;;;;;;4809187;29;20278;-87
2022/06/01 04:51:22;;;;;;;5.90;4.38;;;10.70;99.90;;;;;;4808848;29;20211;-88
2022/06/01 04:53:48;;;;;;;6.88;4.38;;;10.70;99.90;;;;;;4808459;29;20190;-88
2022/06/01 04:56:14;;;;;;;7.18;4.55;;;10.70;99.90;;;;;;4810128;29;20276;-88
2022/06/01 04:58:39;;;;;;;8.03;4.63;;;10.80;99.90;;;;;;4809168;29;20190;-87
2022/06/01 05:01:06;;;;;;;11.45;5.53;;;10.80;99.90;;;;;;4808904;29;20186;-87
2022/06/01 05:03:33;;;;;;;7.65;4.55;;;10.90;99.90;;;;;;4808133;29;20187;-87
2022/06/01 05:05:58;;;;;;;10.23;5.65;;;11.00;99.90;;;;;;4808609;29;20179;-87
2022/06/01 05:08:24;;;;;;;5.45;4.70;;;11.10;99.90;;;;;;4808934;29;20281;-87
2022/06/01 05:10:50;;;;;;;7.00;4.80;;;11.10;99.90;;;;;;4808763;29;20332;-88
2022/06/01 05:13:19;;;;;;;6.55;4.60;;;11.20;99.90;;;;;;4808916;29;20640;-88
2022/06/01 05:15:54;;;;;;;7.07;4.53;;;11.20;99.90;;;;;;4808122;29;20251;-87
2022/06/01 05:18:20;;;;;;;7.43;4.90;;;11.20;99.90;;;;;;4808747;29;20411;-88
2022/06/01 05:20:46;;;;;;;6.18;4.75;;;11.30;99.90;;;;;;4809757;29;20313;-87
2022/06/01 05:23:12;;;;;;;6.32;4.57;;;11.40;99.90;;;;;;4824002;29;20183;-89
2022/06/01 05:25:39;;;;;;;5.95;4.57;;;11.40;99.90;;;;;;4805658;29;20191;-88
2022/06/01 05:28:05;;;;;;;5.80;4.63;;;11.50;99.90;;;;;;4809341;29;20251;-88
2022/06/01 05:30:31;;;;;;;5.40;4.88;;;11.60;99.90;;;;;;4818989;29;20193;-89
2022/06/01 05:32:57;;;;;;;6.53;5.10;;;11.60;99.90;;;;;;4809767;29;20179;-88
2022/06/01 05:35:22;;;;;;;7.03;5.03;;;11.60;99.90;;;;;;4808181;29;20261;-88
2022/06/01 05:37:48;;;;;;;7.25;5.45;;;11.60;99.90;;;;;;4809503;29;20175;-88
2022/06/01 05:40:14;;;;;;;8.57;4.70;;;11.60;99.90;;;;;;4808280;29;20182;-88
2022/06/01 05:42:39;;;;;;;9.65;5.47;;;11.70;99.90;;;;;;4808022;29;20399;-88
2022/06/01 05:45:06;;;;;;;6.80;5.35;;;11.70;99.90;;;;;;4808021;29;20171;-90
2022/06/01 05:47:33;;;;;;;6.97;5.43;;;11.80;99.90;;;;;;4808333;29;20528;-88
2022/06/01 05:49:59;;;;;;;6.78;5.10;;;11.80;99.90;;;;;;4808285;29;20384;-89
2022/06/01 05:52:25;;;;;;;6.53;5.60;;;11.90;99.90;;;;;;4808006;29;20284;-88
2022/06/01 05:54:50;;;;;;;8.00;6.18;;;12.00;99.90;;;;;;4809103;29;20234;-89
2022/06/01 05:57:16;;;;;;;7.93;5.80;;;12.10;99.90;;;;;;4808190;29;20555;-92
2022/06/01 05:59:42;;;;;;;6.93;5.65;;;12.10;99.90;;;;;;4807946;29;20179;-90
2022/06/01 06:02:08;;;;;;;7.90;6.53;;;12.20;99.90;;;;;;4807743;29;20646;-91
2022/06/01 06:04:34;;;;;;;9.00;5.60;;;12.40;99.90;;;;;;4807911;29;20182;-90
2022/06/01 06:06:59;;;;;;;7.38;5.45;;;12.50;99.90;;;;;;4801227;29;20524;-88
2022/06/01 06:09:26;;;;;;;6.95;5.00;;;12.50;99.90;;;;;;4789813;29;20210;-91
2022/06/01 06:11:52;;;;;;;7.45;6.00;;;12.60;99.90;;;;;;4789906;29;20635;-91
2022/06/01 06:14:20;;;;;;;7.25;5.60;;;12.60;99.90;;;;;;4789410;29;20223;-89
2022/06/01 06:16:47;;;;;;;8.00;6.03;;;12.70;99.90;;;;;;4789722;29;20219;-90
2022/06/01 06:19:16;;;;;;;8.45;5.68;;;12.80;99.90;;;;;;4789002;29;20211;-89
2022/06/01 06:21:42;;;;;;;9.63;6.00;;;13.00;99.90;;;;;;4794931;29;20234;-91
2022/06/01 06:24:11;;;;;;;9.18;5.70;;;13.00;99.90;;;;;;4807706;29;20182;-91
2022/06/01 06:26:38;;;;;;;8.30;6.05;;;13.10;99.90;;;;;;4807607;29;20327;-92
2022/06/01 06:29:09;;;;;;;7.45;5.50;;;13.30;99.90;;;;;;4817580;29;20186;-93
2022/06/01 06:31:36;;;;;;;8.30;5.97;;;13.40;99.90;;;;;;4804982;29;20194;-90
2022/06/01 06:34:03;;;;;;;6.28;5.35;;;13.50;99.90;;;;;;4800921;29;20190;-90
2022/06/01 06:36:29;;;;;;;8.75;5.57;;;13.60;99.90;;;;;;4806448;29;20305;-89
2022/06/01 06:38:55;;;;;;;8.85;5.78;;;13.60;99.90;;;;;;4796794;29;20191;-89
2022/06/01 06:41:22;;;;;;;7.50;5.15;;;13.60;99.90;;;;;;4789051;29;20646;-90
2022/06/01 06:43:48;;;;;;;5.70;5.10;;;13.50;99.90;;;;;;4788579;29;20325;-89
2022/06/01 06:46:16;;;;;;;6.72;4.85;;;13.40;99.90;;;;;;4788442;29;20594;-87
2022/06/01 06:48:43;;;;;;;7.05;5.15;;;13.30;99.90;;;;;;4796818;29;20175;-88
2022/06/01 06:51:10;;;;;;;7.30;5.00;;;13.40;99.90;;;;;;4795263;29;20635;-86
2022/06/01 06:53:36;;;;;;;8.73;5.35;;;13.50;99.90;;;;;;4806044;29;20183;-87
2022/06/01 06:56:02;;;;;;;8.07;5.47;;;13.50;99.90;;;;;;4804766;29;20218;-87
2022/06/01 06:58:29;;;;;;;6.80;5.20;;;13.60;99.90;;;;;;4809034;29;20208;-90
2022/06/01 07:00:54;;;;;;;6.95;4.55;;;13.80;99.90;;;;;;4805448;29;20649;-85
2022/06/01 07:03:20;;;;;;;5.93;4.95;;;13.80;99.90;;;;;;4804557;29;20191;-89
2022/06/01 07:08:31;;;;;;;6.55;5.03;;;13.80;99.90;;;;;;4806306;29;20206;-85
2022/06/01 07:10:58;;;;;;;8.43;5.50;;;13.80;99.90;;;;;;4805201;29;20186;-85
2022/06/01 07:13:24;;;;;;;8.90;5.30;;;13.80;99.90;;;;;;4805660;29;20217;-87
2022/06/01 07:16:11;;;;;;;8.57;5.57;;;13.70;99.90;;;;;;4805600;29;20249;-88
2022/06/01 07:18:38;;;;;;;7.32;5.53;;;13.80;99.90;;;;;;4806645;29;20231;-86
2022/06/01 07:21:04;;;;;;;8.18;5.30;;;13.90;99.90;;;;;;4806810;29;20616;-87
2022/06/01 07:23:30;;;;;;;13.02;5.63;;;14.00;99.90;;;;;;4805453;29;20258;-87
2022/06/01 07:25:56;;;;;;;7.80;5.10;;;14.00;99.90;;;;;;4806699;29;20756;-87
2022/06/01 07:28:22;;;;;;;8.93;5.43;;;14.00;99.90;;;;;;4817442;29;20307;-84
2022/06/01 07:30:50;;;;;;;8.52;5.40;;;14.10;99.90;;;;;;4824784;29;20637;-86
2022/06/01 07:33:17;;;;;;;6.93;5.43;;;14.10;99.90;;;;;;4823331;29;20182;-87
2022/06/01 07:35:42;;;;;;;6.28;4.88;;;14.10;99.90;;;;;;4805475;29;20305;-84
2022/06/01 07:43:39;;;;;;;6.03;5.40;;;14.40;99.90;;;;;;4788874;29;20190;-83
2022/06/01 07:46:05;;;;;;;6.68;5.47;;;14.50;99.90;;;;;;4792736;29;20183;-84
2022/06/01 07:48:32;;;;;;;6.25;5.07;;;14.40;99.90;;;;;;4805202;29;20265;-86
2022/06/01 07:50:58;;;;;;;9.18;5.65;;;14.60;99.90;;;;;;4804100;29;20218;-86
2022/06/01 07:53:24;;;;;;;9.55;5.65;;;14.80;99.90;;;;;;4805152;29;20591;-85
2022/06/01 07:55:50;;;;;;;10.23;5.95;;;15.00;99.90;;;;;;4787676;29;20233;-85
2022/06/01 07:58:16;;;;;;;7.03;5.97;;;15.20;99.90;;;;;;4786972;29;20179;-85
2022/06/01 08:00:41;;;;;;;6.60;5.57;;;15.40;99.90;;;;;;4801740;29;20195;-87
2022/06/01 08:03:13;;;;;;;9.13;5.82;;;15.60;99.90;;;;;;4801706;29;20199;-88
2022/06/01 08:05:39;;;;;;;8.60;5.72;;;15.80;99.90;;;;;;4801518;29;20175;-86
2022/06/01 08:08:05;;;;;;;8.55;6.03;;;16.00;99.90;;;;;;4785825;29;20191;-85
2022/06/01 08:10:30;;;;;;;8.10;5.97;;;16.20;99.90;;;;;;4800628;29;20588;-84
2022/06/01 08:13:09;;;;;;;6.45;5.80;;;16.30;99.90;;;;;;4789239;29;20640;-85
2022/06/01 08:15:44;;;;;;;9.43;6.30;;;16.30;99.90;;;;;;4804768;29;20720;-86
2022/06/01 08:18:12;;;;;;;8.15;6.30;;;16.40;99.90;;;;;;4792840;29;20179;-86
2022/06/01 08:20:38;;;;;;;10.02;6.30;;;16.50;99.90;;;;;;4802195;29;20753;-85
2022/06/01 08:23:05;;;;;;;7.25;5.80;;;16.50;99.90;;;;;;4803402;29;20217;-84
2022/06/01 08:25:31;;;;;;;7.97;6.47;;;16.60;99.90;;;;;;4803733;29;20574;-88
2022/06/01 08:27:57;;;;;;;7.53;6.28;;;16.70;99.90;;;;;;4804110;29;20253;-84
2022/06/01 08:30:25;;;;;;;7.45;6.10;;;16.70;99.90;;;;;;4803843;29;20214;-84
2022/06/01 08:32:53;;;;;;;8.65;6.47;;;16.90;99.90;;;;;;4804268;29;20190;-86
2022/06/01 08:35:23;;;;;;;8.68;6.55;;;16.90;99.90;;;;;;4804420;29;20211;-84
2022/06/01 08:37:48;;;;;;;8.45;6.40;;;17.00;99.90;;;;;;4805313;29;20178;-84
2022/06/01 08:40:17;;;;;;;7.85;6.05;;;16.80;99.90;;;;;;4804197;29;20242;-83
2022/06/01 08:42:52;;;;;;;7.38;6.47;;;16.80;99.90;;;;;;4809272;29;20191;-86
2022/06/01 08:45:18;;;;;;;7.28;6.13;;;16.70;99.90;;;;;;4806309;29;20189;-85
2022/06/01 08:47:45;;;;;;;8.10;6.60;;;16.70;99.90;;;;;;4808453;29;20246;-85
2022/06/01 08:50:41;;;;;;;6.63;5.63;;;16.80;99.90;;;;;;4807063;29;20201;-85
2022/06/01 08:53:08;;;;;;;10.23;5.70;;;17.00;99.90;;;;;;4793698;29;20745;-85
2022/06/01 08:56:01;;;;;;;8.25;5.63;;;17.00;99.90;;;;;;4810232;29;20304;-82
2022/06/01 08:58:36;;;;;;;7.32;5.22;;;16.70;99.90;;;;;;4796239;29;20237;-83
2022/06/01 09:01:14;;;;;;;7.60;6.03;;;16.80;99.90;;;;;;4804682;29;20175;-84
2022/06/01 09:03:51;;;;;;;9.10;6.05;;;17.00;99.90;;;;;;4807663;29;20248;-84
2022/06/01 09:06:26;;;;;;;6.50;5.63;;;16.90;99.90;;;;;;4802600;29;20519;-84
2022/06/01 09:09:07;;;;;;;7.03;5.28;;;17.00;99.90;;;;;;4816826;29;20203;-84
2022/06/01 09:11:37;;;;;;;7.15;5.05;;;17.20;99.90;;;;;;4826144;29;20186;-83
2022/06/01 09:14:28;;;;;;;6.72;5.75;;;17.50;99.90;;;;;;4813389;29;20191;-83
2022/06/01 09:16:56;;;;;;;8.80;5.60;;;17.70;99.90;;;;;;4806565;29;20238;-83
2022/06/01 09:19:25;;;;;;;6.85;5.00;;;17.90;99.90;;;;;;4808344;29;20673;-82
2022/06/01 09:24:55;;;;;;;6.72;4.95;;;18.20;99.90;;;;;;4789761;30;20862;-82
2022/06/01 09:27:34;;;;;;;6.07;4.53;;;18.10;99.90;;;;;;4796072;29;20269;-86
2022/06/01 09:30:16;;;;;;;5.97;4.63;;;18.10;99.90;;;;;;4823122;29;20196;-82
2022/06/01 09:32:57;;;;;;;6.32;4.68;;;18.20;99.90;;;;;;4826444;29;20178;-83
2022/06/01 09:35:28;;;;;;;4.82;4.05;;;18.20;99.90;;;;;;4814738;29;20219;-84
2022/06/01 09:37:54;;;;;;;5.75;3.97;;;18.20;99.80;;;;;;4807045;29;20638;-82
2022/06/01 09:40:46;;;;;;;5.45;4.07;;;18.40;99.90;;;;;;4807681;29;20186;-85
2022/06/01 09:43:33;;;;;;;3.78;3.30;;;18.60;99.90;;;;;;4803860;29;20255;-82
2022/06/01 09:46:00;;;;;;;4.45;3.28;;;18.80;97.90;;;;;;4805913;29;20251;-83
2022/06/01 09:48:29;;;;;;;5.22;4.18;;;18.80;99.00;;;;;;4806665;29;20190;-86
2022/06/01 09:51:20;;;;;;;5.15;4.35;;;18.80;99.20;;;;;;4806872;29;20190;-85
2022/06/01 09:54:08;;;;;;;9.98;3.92;;;18.80;99.60;;;;;;4788861;29;20167;-83
2022/06/01 09:56:40;;;;;;;5.57;3.80;;;18.80;98.50;;;;;;4789914;29;20234;-81
2022/06/01 10:07:21;;;;;;;7.75;2.90;;;18.10;98.60;;;;;;4807139;29;20520;-84
2022/06/01 10:10:02;;;;;;;3.08;2.78;;;17.80;98.60;;;;;;4806652;29;20189;-87
2022/06/01 10:12:40;;;;;;;5.07;3.22;;;17.60;98.90;;;;;;4806956;29;20190;-85
2022/06/01 10:15:32;;;;;;;3.92;3.08;;;17.40;99.00;;;;;;4804900;29;20600;-85
2022/06/01 10:18:23;;;;;;;3.90;2.97;;;17.10;99.80;;;;;;4806743;29;20182;-82
2022/06/01 10:20:55;;;;;;;6.05;3.20;;;17.00;99.90;;;;;;4804947;29;20230;-85
2022/06/01 10:23:34;;;;;;;4.70;2.72;;;16.80;99.90;;;;;;4805613;29;20308;-82
2022/06/01 10:26:29;;;;;;;4.22;3.15;;;16.70;99.90;;;;;;4804988;29;20663;-83
2022/06/01 10:29:05;;;;;;;4.25;3.15;;;16.30;99.90;;;;;;4804710;29;20289;-83
2022/06/01 10:31:42;;;;;;;4.18;3.45;;;16.10;99.90;;;;;;4806408;29;20201;-83
2022/06/01 10:34:35;;;;;;;5.55;3.35;;;15.80;99.90;;;;;;4804670;29;20182;-84
2022/06/01 10:37:24;;;;;;;4.43;3.40;;;15.50;99.90;;;;;;4807339;29;20693;-86
2022/06/01 10:40:00;;;;;;;7.13;3.20;;;15.40;99.90;;;;;;4805915;29;20190;-86
2022/06/01 10:43:16;;;;;;;3.03;1.95;;;15.40;99.90;;;;;;4806315;29;20202;-84
2022/06/01 10:46:03;;;;;;;1.48;1.20;;;15.20;99.90;;;;;;4806420;29;20244;-84
2022/06/01 10:48:36;;;;;;;1.60;1.00;;;15.20;99.90;;;;;;4806871;29;20175;-83
2022/06/01 10:51:04;;;;;;;1.33;1.23;;;15.20;99.90;;;;;;4792295;29;20179;-84
2022/06/01 10:53:59;;;;;;;1.60;1.20;;;15.20;99.90;;;;;;4787664;29;20191;-82
2022/06/01 10:56:26;;;;;;;3.95;1.40;;;15.50;99.90;;;;;;4787651;29;20572;-86
2022/06/01 10:58:59;;;;;;;1.60;1.23;;;16.00;99.90;;;;;;4814070;29;20688;-83
2022/06/01 11:01:45;;;;;;;1.27;1.17;;;16.30;99.90;;;;;;4823898;29;20192;-83
2022/06/01 11:04:32;;;;;;;2.67;1.58;;;16.50;99.90;;;;;;4794331;29;20205;-82
2022/06/01 11:07:19;;;;;;;2.10;1.73;;;16.50;99.90;;;;;;4801857;29;20182;-82
2022/06/01 11:10:02;;;;;;;2.90;2.40;;;16.40;99.90;;;;;;4788721;29;20263;-84
2022/06/01 11:12:49;;;;;;;2.25;2.05;;;16.40;99.90;;;;;;4804025;29;20198;-83
2022/06/01 11:15:37;;;;;;;3.05;2.60;;;16.90;99.90;;;;;;4788489;29;20360;-83
2022/06/01 11:18:19;;;;;;;3.65;2.80;;;17.60;99.90;;;;;;4805162;29;20278;-80
2022/06/01 11:21:28;;;;;;;3.80;2.63;;;18.20;99.90;;;;;;4805127;29;20355;-86
2022/06/01 11:24:31;;;;;;;3.90;2.60;;;18.80;99.90;;;;;;4803980;29;20187;-81
2022/06/01 11:27:19;;;;;;;3.78;2.70;;;19.00;99.90;;;;;;4791743;29;20285;-82
2022/06/01 11:30:21;;;;;;;4.82;2.63;;;19.10;98.70;;;;;;4804860;29;20183;-81
2022/06/01 11:33:00;;;;;;;2.70;2.40;;;19.10;99.30;;;;;;4803250;29;20591;-80
2022/06/01 11:35:39;;;;;;;3.20;2.42;;;19.30;97.70;;;;;;4805918;29;20202;-79
2022/06/01 11:38:05;;;;;;;4.10;2.30;;;19.40;96.60;;;;;;4794944;29;20183;-81
2022/06/01 11:40:47;;;;;;;2.38;2.03;;;19.50;98.20;;;;;;4786908;29;20199;-83
2022/06/01 11:43:15;;;;;;;3.00;2.17;;;19.70;98.40;;;;;;4788092;29;20179;-82
2022/06/01 11:45:55;;;;;;;4.72;2.30;;;19.90;97.70;;;;;;4791647;29;20202;-82
2022/06/01 11:48:31;;;;;;;2.92;2.35;;;20.00;96.50;;;;;;4797800;29;20333;-81
2022/06/01 11:51:03;;;;;;;3.85;2.45;;;20.00;97.00;;;;;;4805570;29;20226;-82
2022/06/01 11:54:01;;;;;;;3.55;2.58;;;19.90;95.50;;;;;;4803551;29;20770;-83
2022/06/01 11:56:30;;;;;;;3.17;2.20;;;19.40;96.50;;;;;;4804221;29;20222;-81
2022/06/01 11:59:36;;;;;;;4.57;2.40;;;19.10;97.00;;;;;;4803144;29;20627;-81
2022/06/01 12:02:47;;;;;;;3.88;2.65;;;18.50;97.50;;;;;;4800343;29;20198;-82
2022/06/01 12:05:31;;;;;;;3.13;1.75;;;18.10;99.90;;;;;;4804962;29;20222;-80
2022/06/01 12:08:05;;;;;;;2.92;2.60;;;17.70;98.70;;;;;;4803249;29;20251;-82
2022/06/01 12:10:51;;;;;;;4.15;2.70;;;17.50;99.90;;;;;;4804559;29;20183;-82
2022/06/01 12:13:52;;;;;;;2.70;1.98;;;17.50;99.90;;;;;;4803917;29;20409;-82
2022/06/01 12:16:24;;;;;;;4.18;2.67;;;17.60;99.90;;;;;;4798025;29;20210;-82
2022/06/01 12:19:02;;;;;;;3.95;2.13;;;18.00;99.90;;;;;;4808688;29;20658;-81
2022/06/01 12:21:55;;;;;;;2.72;2.08;;;18.60;99.90;;;;;;4807504;29;20271;-81
2022/06/01 12:30:02;;;;;;;2.15;1.50;;;19.80;95.80;;;;;;4791469;30;20237;-83
2022/06/01 12:32:31;;;;;;;2.85;1.88;;;19.90;96.40;;;;;;4808150;29;20190;-84
2022/06/01 12:35:17;;;;;;;2.85;2.08;;;19.90;95.30;;;;;;4807710;29;20269;-84
2022/06/01 12:37:57;;;;;;;3.03;2.20;;;20.10;96.10;;;;;;4807854;29;20769;-82
2022/06/01 12:40:24;;;;;;;4.93;2.35;;;20.30;96.80;;;;;;4808491;29;20498;-85
2022/06/01 12:42:53;;;;;;;4.97;2.40;;;20.50;95.50;;;;;;4807457;29;20184;-81
2022/06/01 12:45:21;;;;;;;3.22;1.75;;;20.60;95.00;;;;;;4807552;29;20194;-82
2022/06/01 12:47:59;;;;;;;3.38;1.67;;;20.80;94.10;;;;;;4807040;29;20179;-84
2022/06/01 12:50:29;;;;;;;4.43;2.00;;;20.90;94.30;;;;;;4790843;29;20314;-83
2022/06/01 12:53:12;;;;;;;6.95;2.45;;;20.70;94.20;;;;;;4789283;29;20229;-83
2022/06/01 12:55:39;;;;;;;3.55;2.20;;;20.70;94.00;;;;;;4799259;29;20573;-82
2022/06/01 12:58:30;;;;;;;2.42;2.20;;;20.40;93.80;;;;;;4808611;29;20182;-82
2022/06/01 13:00:56;;;;;;;3.67;2.35;;;20.10;93.70;;;;;;4807437;29;20231;-84
2022/06/01 13:03:29;;;;;;;3.45;2.20;;;19.50;95.70;;;;;;4807437;29;20627;-83
2022/06/01 13:05:59;;;;;;;2.40;2.05;;;19.20;95.10;;;;;;4807846;29;20186;-83
2022/06/01 13:08:28;;;;;;;4.20;2.35;;;18.80;96.40;;;;;;4807192;29;20208;-84
2022/06/01 13:10:54;;;;;;;4.40;2.63;;;18.60;96.00;;;;;;4808568;29;20183;-82
2022/06/01 13:13:25;;;;;;;3.40;2.40;;;18.40;96.80;;;;;;4807199;29;20201;-83
2022/06/01 13:16:06;;;;;;;2.80;2.17;;;18.20;97.40;;;;;;4807070;29;20226;-83
2022/06/01 13:18:38;;;;;;;6.93;2.65;;;18.10;97.00;;;;;;4808326;29;20166;-83
2022/06/01 13:21:09;;;;;;;3.05;2.50;;;18.00;97.00;;;;;;4808190;29;20249;-83
2022/06/01 13:23:46;;;;;;;5.50;3.13;;;17.80;97.50;;;;;;4807826;29;20677;-83
2022/06/01 13:26:19;;;;;;;3.50;2.67;;;17.60;98.40;;;;;;4807259;29;20201;-84
2022/06/01 13:28:46;;;;;;;2.15;1.73;;;17.40;99.90;;;;;;4807136;29;20642;-90
2022/06/01 13:31:13;;;;;;;1.55;1.33;;;16.90;99.90;;;;;;4796565;29;20202;-88
2022/06/01 13:33:42;;;;;;;2.65;1.50;;;16.50;99.90;;;;;;4790580;29;20619;-86
2022/06/01 13:36:14;;;;;;;2.63;1.40;;;16.30;99.90;;;;;;4801848;29;20246;-87
2022/06/01 13:38:41;;;;;;;1.65;0.90;;;16.10;99.90;;;;;;4807491;29;20187;-86
2022/06/01 13:41:53;;;;;;;1.33;0.90;;;16.10;99.90;;;;;;4807279;29;20615;-88
2022/06/01 13:44:50;;;;;;;1.38;1.05;;;16.10;99.90;;;;;;4809985;29;20194;-86
2022/06/01 13:47:23;;;;;;;1.40;1.08;;;16.20;99.90;;;;;;4808461;29;20241;-85